首页
METAR-TAF:

METAR-TAF

机场 :

納杰夫, 伊拉克

纬度: 31-59-23N, 经度: 44-24-15E, 海拔: 31米

当前天气观测

该预报发布于1小时和4分钟前的08:00 UTC
风速7节,风向北转西北
温度 34°C
湿度 16%
气压 1017 hPa
能见度10公里或以上
少量云层高于4000英尺

METAR: ORNI 170800Z 34007KT 9999 FEW040 34/05 Q1017 NOSIG

时间: 12:04 (09:04 UTC)

预报

该预报发布于6小时和4分钟前的03:00 UTC
预报有效从17日的 06点(UTC)到 18日的 06点(UTC)
风速3节,风向多变
能見度: 8000
散云层高于3000英尺
几率 % :
短暂存在
从 17日的 12点(UTC)到 17日的 18点(UTC)
多云层高于3000英尺
(小) 阵雨

TAF: ORNI 170300Z 1706/1806 VRB03KT 8000 SCT030 PROB TEMPO 1712/1718 - SHRA BKN030

超过4000个机场的气象观测和天气预报(METAR&TAF报告)。

可查询的气象台以黄色和红色小点在地图上表示。

将鼠标移到小点上方,可查看气象台名称。

然后点击查看天气观测和预报。

如需切换地图:点击带黑十字的绿色按钮放大地图;点击带横线的绿色按钮缩小地图;或者点击绿色箭头查看邻近地区的地图。


METAR-TAF: